Time;durP1;ratioP1;P1;durP2;ratioP2;P2;SDS_P1;SDS_P2;PMS_P1;PMS_P2;Temp;Humidity;BMP_temperature;BMP_pressure;BME280_temperature;BME280_humidity;BME280_pressure;Samples;Min_cycle;Max_cycle;Signal;HPM_P1;HPM_P2
2021/12/29 00:00:59;;;;;;;33.73;30.83;;;9.10;99.90;;;;;;5054336;28;20475;-72
2021/12/29 00:03:28;;;;;;;34.60;31.60;;;9.10;99.90;;;;;;5058967;28;20467;-71
2021/12/29 00:05:55;;;;;;;34.47;31.67;;;9.20;99.90;;;;;;5048761;28;20864;-73
2021/12/29 00:08:22;;;;;;;36.30;33.40;;;9.20;99.90;;;;;;5063293;28;20672;-73
2021/12/29 00:10:54;;;;;;;34.47;31.83;;;9.20;99.90;;;;;;5055485;28;20953;-73
2021/12/29 00:13:21;;;;;;;32.70;30.07;;;9.20;99.90;;;;;;5056656;28;20562;-73
2021/12/29 00:15:48;;;;;;;34.97;31.93;;;9.20;99.90;;;;;;5060740;28;20829;-72
2021/12/29 00:18:15;;;;;;;34.23;31.20;;;9.20;99.90;;;;;;5063504;28;20471;-73
2021/12/29 00:20:43;;;;;;;33.67;30.67;;;9.20;99.90;;;;;;5047899;28;20497;-74
2021/12/29 00:23:10;;;;;;;34.63;31.67;;;9.20;99.90;;;;;;5059599;28;20491;-73
2021/12/29 00:25:37;;;;;;;37.23;34.03;;;9.10;99.90;;;;;;5055569;28;20470;-74
2021/12/29 00:28:04;;;;;;;35.33;30.43;;;9.10;99.90;;;;;;5054798;28;20463;-73
2021/12/29 00:30:33;;;;;;;35.90;32.37;;;9.10;99.90;;;;;;5050656;28;20860;-72
2021/12/29 00:33:01;;;;;;;35.77;32.43;;;9.20;99.90;;;;;;5051079;28;20460;-71
2021/12/29 00:35:29;;;;;;;35.30;31.80;;;9.10;99.90;;;;;;5056601;28;20496;-74
2021/12/29 00:37:59;;;;;;;36.30;32.90;;;9.20;99.90;;;;;;5053039;28;20819;-72
2021/12/29 00:40:26;;;;;;;36.13;32.93;;;9.20;99.90;;;;;;5052924;28;20497;-72
2021/12/29 00:42:53;;;;;;;33.07;30.27;;;9.10;99.90;;;;;;5049489;28;20459;-72
2021/12/29 00:45:21;;;;;;;36.17;32.90;;;9.10;99.90;;;;;;5054961;28;20494;-72
2021/12/29 00:47:50;;;;;;;34.90;32.20;;;9.10;99.90;;;;;;5056282;28;20489;-72
2021/12/29 00:50:17;;;;;;;35.97;33.13;;;9.10;99.90;;;;;;5053236;28;20570;-72
2021/12/29 00:52:45;;;;;;;36.27;33.27;;;9.20;99.90;;;;;;5055920;28;20537;-74
2021/12/29 00:55:15;;;;;;;36.97;33.80;;;9.20;99.90;;;;;;5057477;28;20907;-72
2021/12/29 00:57:42;;;;;;;34.43;31.50;;;9.10;99.90;;;;;;5059913;28;20447;-74
2021/12/29 01:00:13;;;;;;;34.40;31.40;;;9.10;99.90;;;;;;5055484;28;21278;-73
2021/12/29 01:02:41;;;;;;;36.03;32.87;;;9.10;99.90;;;;;;5054105;28;20977;-73
2021/12/29 01:05:10;;;;;;;34.83;31.87;;;9.10;99.90;;;;;;5052504;28;20550;-72
2021/12/29 01:07:38;;;;;;;32.47;29.87;;;9.10;99.90;;;;;;5055645;28;20512;-72
2021/12/29 01:10:06;;;;;;;33.67;30.57;;;9.10;99.90;;;;;;5055417;28;21123;-73
2021/12/29 01:12:34;;;;;;;35.07;32.27;;;9.10;99.90;;;;;;5059412;28;20461;-72
2021/12/29 01:15:02;;;;;;;33.73;30.60;;;9.10;99.90;;;;;;5052880;28;20456;-72
2021/12/29 01:17:31;;;;;;;32.50;30.00;;;9.10;99.90;;;;;;5057303;28;20555;-74
2021/12/29 01:19:59;;;;;;;33.77;31.07;;;9.10;99.90;;;;;;5055213;28;20521;-73
2021/12/29 01:22:26;;;;;;;34.23;31.53;;;9.10;99.90;;;;;;5046733;28;20839;-72
2021/12/29 01:24:53;;;;;;;34.50;31.90;;;9.10;99.90;;;;;;5062858;28;20518;-73
2021/12/29 01:27:19;;;;;;;32.63;30.03;;;9.10;99.90;;;;;;5048166;28;20459;-74
2021/12/29 01:29:47;;;;;;;33.87;31.37;;;9.10;99.90;;;;;;5061289;28;20474;-72
2021/12/29 01:32:14;;;;;;;33.43;30.73;;;9.10;99.90;;;;;;5055806;28;21339;-72
2021/12/29 01:34:42;;;;;;;33.50;30.90;;;9.10;99.90;;;;;;5050940;28;21131;-72
2021/12/29 01:37:10;;;;;;;34.53;31.57;;;9.10;99.90;;;;;;5056819;28;21030;-72
2021/12/29 01:39:36;;;;;;;32.87;30.50;;;9.10;99.90;;;;;;5052117;28;20476;-72
2021/12/29 01:42:04;;;;;;;32.33;29.97;;;9.10;99.90;;;;;;5055358;28;20460;-73
2021/12/29 01:44:31;;;;;;;33.40;30.77;;;9.10;99.90;;;;;;5050759;28;20468;-74
2021/12/29 01:46:59;;;;;;;33.80;31.00;;;9.10;99.90;;;;;;5058355;28;20507;-73
2021/12/29 01:49:27;;;;;;;33.60;31.00;;;9.10;99.90;;;;;;5051430;28;20460;-72
2021/12/29 01:52:03;;;;;;;34.33;31.43;;;9.10;99.90;;;;;;5049994;28;20496;-72
2021/12/29 01:54:34;;;;;;;32.73;30.43;;;9.10;99.90;;;;;;5061558;28;20460;-73
2021/12/29 01:57:03;;;;;;;34.70;32.00;;;9.00;99.90;;;;;;5054446;28;20463;-73
2021/12/29 01:59:30;;;;;;;33.57;30.90;;;9.10;99.90;;;;;;5053457;28;20882;-71
2021/12/29 02:01:59;;;;;;;33.63;31.03;;;9.00;99.90;;;;;;5053523;28;20487;-71
2021/12/29 02:04:26;;;;;;;33.97;31.27;;;9.10;99.90;;;;;;5051954;28;20467;-72
2021/12/29 02:06:53;;;;;;;36.77;33.97;;;9.00;99.90;;;;;;5058499;28;20482;-71
2021/12/29 02:09:20;;;;;;;37.17;33.93;;;9.00;99.90;;;;;;5058857;28;20464;-72
2021/12/29 02:11:47;;;;;;;36.83;33.63;;;9.10;99.90;;;;;;5054880;28;20463;-70
2021/12/29 02:14:15;;;;;;;36.17;33.30;;;9.00;99.90;;;;;;5055793;28;20470;-71
2021/12/29 02:16:42;;;;;;;36.07;33.07;;;9.10;99.90;;;;;;5058337;28;20493;-71
2021/12/29 02:19:12;;;;;;;37.00;34.00;;;9.10;99.90;;;;;;5059574;28;20462;-70
2021/12/29 02:21:43;;;;;;;34.77;32.03;;;9.00;99.90;;;;;;5055495;28;21091;-72
2021/12/29 02:24:19;;;;;;;36.23;33.00;;;9.00;99.90;;;;;;5056990;28;20951;-73
2021/12/29 02:26:47;;;;;;;37.23;33.70;;;9.00;99.90;;;;;;5056449;28;20955;-72
2021/12/29 02:29:18;;;;;;;37.77;34.07;;;9.00;99.90;;;;;;5059991;28;20962;-73
2021/12/29 02:31:46;;;;;;;37.63;34.27;;;9.00;99.90;;;;;;5056893;28;20560;-72
2021/12/29 02:34:16;;;;;;;35.37;32.37;;;9.00;99.90;;;;;;5057715;28;20478;-71
2021/12/29 02:36:45;;;;;;;30.93;28.10;;;9.00;99.90;;;;;;5056630;28;20559;-71
2021/12/29 02:39:15;;;;;;;35.90;32.40;;;9.00;99.90;;;;;;5055683;28;20527;-71
2021/12/29 02:41:45;;;;;;;34.53;31.47;;;9.00;99.90;;;;;;5055722;28;21044;-73
2021/12/29 02:44:17;;;;;;;36.33;32.83;;;9.00;99.90;;;;;;5059309;28;20564;-71
2021/12/29 02:46:45;;;;;;;34.50;31.63;;;9.00;99.90;;;;;;5058863;28;20524;-72
2021/12/29 02:49:12;;;;;;;37.20;33.70;;;9.00;99.90;;;;;;5056080;28;20468;-70
2021/12/29 02:51:40;;;;;;;35.50;32.20;;;9.00;99.90;;;;;;5054532;28;20604;-72
2021/12/29 02:54:09;;;;;;;35.90;32.80;;;9.00;99.90;;;;;;5063249;28;20486;-71
2021/12/29 02:56:36;;;;;;;39.27;35.30;;;9.00;99.90;;;;;;5061555;28;20540;-72
2021/12/29 02:59:03;;;;;;;38.40;35.07;;;9.00;99.90;;;;;;5057436;28;20543;-71
2021/12/29 03:01:30;;;;;;;36.60;33.60;;;9.00;99.90;;;;;;5057964;28;20489;-72
2021/12/29 03:03:58;;;;;;;36.77;33.43;;;9.00;99.90;;;;;;5055465;28;20457;-70
2021/12/29 03:06:25;;;;;;;34.97;31.93;;;9.00;99.90;;;;;;5055672;28;20456;-70
2021/12/29 03:08:52;;;;;;;37.67;34.40;;;9.00;99.90;;;;;;5051134;28;20456;-71
2021/12/29 03:11:21;;;;;;;34.20;31.40;;;9.00;99.90;;;;;;5055974;28;20463;-70
2021/12/29 03:13:47;;;;;;;36.97;33.10;;;9.00;99.90;;;;;;5054928;28;20455;-70
2021/12/29 03:16:14;;;;;;;34.80;31.80;;;9.00;99.90;;;;;;5052689;28;20463;-72
2021/12/29 03:18:43;;;;;;;35.90;32.90;;;9.00;99.90;;;;;;5055231;28;20471;-71
2021/12/29 03:21:10;;;;;;;36.57;33.37;;;9.00;99.90;;;;;;5061368;28;20582;-70
2021/12/29 03:23:38;;;;;;;34.90;31.80;;;9.00;99.90;;;;;;5062099;28;20486;-71
2021/12/29 03:26:06;;;;;;;34.77;31.43;;;9.00;99.90;;;;;;5055851;28;20479;-71
2021/12/29 03:28:35;;;;;;;37.03;33.80;;;8.90;99.90;;;;;;5057039;28;20869;-71
2021/12/29 03:31:01;;;;;;;36.20;33.10;;;9.00;99.90;;;;;;5051613;28;20450;-72
2021/12/29 03:33:29;;;;;;;39.77;34.03;;;9.00;99.90;;;;;;5057729;28;20555;-71
2021/12/29 03:36:00;;;;;;;35.80;32.63;;;9.00;99.90;;;;;;5055879;28;20463;-72
2021/12/29 03:38:28;;;;;;;34.70;31.67;;;8.90;99.90;;;;;;5054466;28;20463;-70
2021/12/29 03:40:57;;;;;;;34.77;31.73;;;8.90;99.90;;;;;;5056694;28;20487;-70
2021/12/29 03:43:25;;;;;;;36.67;33.43;;;8.90;99.90;;;;;;5055905;28;20460;-72
2021/12/29 03:45:54;;;;;;;36.33;33.03;;;8.90;99.90;;;;;;5057869;28;20478;-71
2021/12/29 03:48:23;;;;;;;35.77;32.97;;;8.90;99.90;;;;;;5061086;28;21067;-71
2021/12/29 03:50:50;;;;;;;34.63;31.73;;;8.90;99.90;;;;;;5055181;28;20494;-70
2021/12/29 03:53:18;;;;;;;37.70;34.37;;;8.90;99.90;;;;;;5053310;28;20833;-71
2021/12/29 03:55:45;;;;;;;36.00;32.70;;;8.90;99.90;;;;;;5056894;28;20968;-71
2021/12/29 03:58:13;;;;;;;38.40;35.00;;;8.90;99.90;;;;;;5056482;28;20455;-72
2021/12/29 04:00:40;;;;;;;39.17;35.77;;;8.90;99.90;;;;;;5057796;28;20489;-72
2021/12/29 04:03:08;;;;;;;36.17;32.70;;;8.90;99.90;;;;;;5053453;28;20463;-71
2021/12/29 04:05:36;;;;;;;38.70;34.73;;;8.90;99.90;;;;;;5052763;28;20531;-71
2021/12/29 04:08:03;;;;;;;37.00;33.50;;;8.90;99.90;;;;;;5049599;28;20467;-72
2021/12/29 04:10:30;;;;;;;38.00;33.80;;;8.80;99.90;;;;;;5052501;28;20468;-72
2021/12/29 04:12:58;;;;;;;35.93;32.77;;;8.80;99.90;;;;;;5054809;28;20466;-72
2021/12/29 04:15:27;;;;;;;36.20;33.00;;;8.80;99.90;;;;;;5055198;28;20472;-70
2021/12/29 04:17:58;;;;;;;37.53;33.97;;;8.80;99.90;;;;;;5057164;28;20457;-72
2021/12/29 04:23:15;;;;;;;36.80;33.23;;;8.80;99.90;;;;;;5052274;28;20473;-71
2021/12/29 04:25:46;;;;;;;35.73;32.43;;;8.80;99.90;;;;;;5057211;28;20959;-72
2021/12/29 04:28:16;;;;;;;37.13;33.60;;;8.70;99.90;;;;;;5052232;28;20485;-71
2021/12/29 04:30:43;;;;;;;34.67;31.13;;;8.70;99.90;;;;;;5052753;28;20493;-71
2021/12/29 04:33:11;;;;;;;35.43;32.20;;;8.80;99.90;;;;;;5057340;28;20464;-71
2021/12/29 04:35:39;;;;;;;34.73;31.13;;;8.70;99.90;;;;;;5057417;28;20484;-71
2021/12/29 04:38:07;;;;;;;35.97;32.17;;;8.70;99.90;;;;;;5048665;28;20467;-70
2021/12/29 04:40:34;;;;;;;35.13;31.87;;;8.70;99.90;;;;;;5053429;28;20491;-71
2021/12/29 04:43:01;;;;;;;35.70;32.50;;;8.70;99.90;;;;;;5050911;28;20465;-71
2021/12/29 04:45:28;;;;;;;37.47;31.63;;;8.70;99.90;;;;;;5059123;28;20461;-72
2021/12/29 04:47:56;;;;;;;34.50;31.40;;;8.70;99.90;;;;;;5047785;28;20464;-71
2021/12/29 04:50:28;;;;;;;35.60;32.40;;;8.70;99.90;;;;;;5059253;28;20486;-71
2021/12/29 04:52:59;;;;;;;34.77;31.57;;;8.70;99.90;;;;;;5058044;28;21103;-72
2021/12/29 04:55:26;;;;;;;35.77;32.43;;;8.70;99.90;;;;;;5057705;28;20458;-71
2021/12/29 04:57:53;;;;;;;35.37;31.93;;;8.70;99.90;;;;;;5051770;28;20470;-71
2021/12/29 05:00:24;;;;;;;37.20;33.00;;;8.70;99.90;;;;;;5050747;28;20470;-70
2021/12/29 05:02:51;;;;;;;35.10;31.90;;;8.70;99.90;;;;;;5054018;28;20495;-71
2021/12/29 05:05:22;;;;;;;34.90;31.50;;;8.70;99.90;;;;;;5051999;28;20458;-70
2021/12/29 05:10:36;;;;;;;38.33;34.70;;;8.60;99.90;;;;;;5054368;28;20483;-70
2021/12/29 05:13:04;;;;;;;37.50;33.70;;;8.70;99.90;;;;;;5056063;28;20564;-72
2021/12/29 05:15:31;;;;;;;35.83;32.43;;;8.70;99.90;;;;;;5055479;28;20454;-70
2021/12/29 05:17:59;;;;;;;33.00;30.10;;;8.70;99.90;;;;;;5053135;28;20452;-70
2021/12/29 05:20:27;;;;;;;37.00;33.63;;;8.60;99.90;;;;;;5051687;28;20471;-70
2021/12/29 05:22:54;;;;;;;38.50;34.60;;;8.60;99.90;;;;;;5053551;28;20499;-70
2021/12/29 05:25:21;;;;;;;35.90;32.20;;;8.60;99.90;;;;;;5056746;28;20458;-70
2021/12/29 05:27:50;;;;;;;36.43;32.80;;;8.60;99.90;;;;;;5053760;28;20463;-69
2021/12/29 05:30:18;;;;;;;39.67;35.50;;;8.60;99.90;;;;;;5054320;28;20458;-71
2021/12/29 05:32:45;;;;;;;33.43;30.50;;;8.70;99.90;;;;;;5051985;28;20474;-71
2021/12/29 05:35:13;;;;;;;37.60;33.90;;;8.60;99.90;;;;;;5053172;28;20470;-71
2021/12/29 05:37:40;;;;;;;37.53;33.53;;;8.60;99.90;;;;;;5054808;28;20468;-69
2021/12/29 05:40:08;;;;;;;38.20;34.37;;;8.60;99.90;;;;;;5059210;28;20463;-71
2021/12/29 05:42:35;;;;;;;39.50;35.30;;;8.70;99.90;;;;;;5058631;28;20497;-70
2021/12/29 05:45:05;;;;;;;34.03;30.80;;;8.70;99.90;;;;;;5058137;28;20458;-70
2021/12/29 05:47:32;;;;;;;39.00;35.20;;;8.70;99.90;;;;;;5059813;28;20472;-69
2021/12/29 05:49:59;;;;;;;38.47;34.50;;;8.60;99.90;;;;;;5053558;28;21013;-69
2021/12/29 05:52:26;;;;;;;38.00;34.20;;;8.70;99.90;;;;;;5061573;28;20458;-69
2021/12/29 05:54:53;;;;;;;37.03;33.27;;;8.70;99.90;;;;;;5059430;28;20482;-71
2021/12/29 05:57:20;;;;;;;33.87;30.77;;;8.60;99.90;;;;;;5055858;28;20554;-70
2021/12/29 05:59:47;;;;;;;38.30;34.73;;;8.60;99.90;;;;;;5061720;28;20500;-70
2021/12/29 06:02:16;;;;;;;38.40;34.67;;;8.70;99.90;;;;;;5056251;28;20497;-71
2021/12/29 06:04:43;;;;;;;40.03;35.90;;;8.70;99.90;;;;;;5054570;28;20460;-71
2021/12/29 06:07:09;;;;;;;38.50;34.80;;;8.70;99.90;;;;;;5059369;28;20463;-70
2021/12/29 06:09:37;;;;;;;38.70;34.90;;;8.70;99.90;;;;;;5055292;28;20909;-70
2021/12/29 06:12:04;;;;;;;36.80;33.20;;;8.70;99.90;;;;;;5059532;28;20965;-71
2021/12/29 06:14:31;;;;;;;36.80;32.80;;;8.70;99.90;;;;;;5060540;28;20462;-70
2021/12/29 06:16:58;;;;;;;38.00;33.90;;;8.60;99.90;;;;;;5060803;28;20465;-71
2021/12/29 06:19:27;;;;;;;38.07;33.17;;;8.70;99.90;;;;;;5055739;28;20486;-71
2021/12/29 06:21:54;;;;;;;37.27;33.53;;;8.70;99.90;;;;;;5055857;28;20494;-69
2021/12/29 06:24:21;;;;;;;37.80;31.80;;;8.60;99.90;;;;;;5057287;28;20462;-71
2021/12/29 06:26:48;;;;;;;37.33;33.27;;;8.60;99.90;;;;;;5060103;28;20474;-71
2021/12/29 06:29:15;;;;;;;37.43;32.70;;;8.80;99.90;;;;;;5057101;28;20942;-71
2021/12/29 06:31:44;;;;;;;36.10;32.53;;;8.70;99.90;;;;;;5058242;28;20463;-71
2021/12/29 06:34:12;;;;;;;39.17;34.27;;;8.70;99.90;;;;;;5060162;28;20463;-70
2021/12/29 06:36:40;;;;;;;45.00;33.50;;;8.80;99.90;;;;;;5064080;28;20473;-69
2021/12/29 06:39:07;;;;;;;36.37;32.50;;;8.80;99.90;;;;;;5058074;28;20858;-71
2021/12/29 06:41:35;;;;;;;36.67;32.87;;;8.80;99.90;;;;;;5059983;28;20475;-70
2021/12/29 06:44:01;;;;;;;47.67;33.80;;;8.80;99.90;;;;;;5054889;28;20516;-71
2021/12/29 06:46:28;;;;;;;39.20;33.80;;;8.70;99.90;;;;;;5057685;28;20989;-71
2021/12/29 06:48:56;;;;;;;36.60;32.77;;;8.70;99.90;;;;;;5050097;28;20459;-71
2021/12/29 06:51:23;;;;;;;40.33;34.97;;;8.70;99.90;;;;;;5053618;28;20512;-69
2021/12/29 06:53:51;;;;;;;39.17;32.73;;;8.70;99.90;;;;;;5051862;28;20499;-71
2021/12/29 06:56:18;;;;;;;36.33;31.90;;;8.70;99.90;;;;;;5052089;28;20467;-69
2021/12/29 06:58:46;;;;;;;36.33;32.50;;;8.80;99.90;;;;;;5052904;28;20477;-71
2021/12/29 07:01:16;;;;;;;35.37;31.33;;;8.80;99.90;;;;;;5055087;28;20985;-70
2021/12/29 07:03:44;;;;;;;38.40;30.97;;;8.80;99.90;;;;;;5056035;28;20573;-69
2021/12/29 07:06:12;;;;;;;36.10;29.37;;;8.80;99.90;;;;;;5055314;28;20827;-71
2021/12/29 07:08:40;;;;;;;38.83;32.53;;;8.80;99.90;;;;;;5049251;28;20467;-70
2021/12/29 07:11:08;;;;;;;27.57;25.07;;;8.80;99.90;;;;;;5056683;28;20502;-71
2021/12/29 07:13:35;;;;;;;31.57;28.10;;;8.80;99.90;;;;;;5056287;28;20984;-71
2021/12/29 07:16:02;;;;;;;30.07;26.83;;;8.80;99.90;;;;;;5060861;28;20469;-70
2021/12/29 07:18:29;;;;;;;32.50;28.13;;;8.80;99.90;;;;;;5053521;28;20472;-70
2021/12/29 07:20:56;;;;;;;31.07;27.97;;;8.80;99.90;;;;;;5060374;28;20466;-72
2021/12/29 07:23:23;;;;;;;33.00;27.57;;;8.80;99.90;;;;;;5063901;28;20494;-71
2021/12/29 07:25:49;;;;;;;30.87;27.97;;;8.90;99.90;;;;;;5056608;28;20456;-71
2021/12/29 07:28:18;;;;;;;30.50;27.13;;;8.80;99.90;;;;;;5057287;28;20463;-70
2021/12/29 07:30:45;;;;;;;33.20;28.43;;;8.90;99.90;;;;;;5056659;28;20466;-71
2021/12/29 07:33:12;;;;;;;29.53;26.60;;;8.90;99.90;;;;;;5060809;28;20460;-71
2021/12/29 07:35:41;;;;;;;29.63;26.40;;;8.90;99.90;;;;;;5055968;28;20460;-71
2021/12/29 07:38:08;;;;;;;29.20;26.10;;;8.90;99.90;;;;;;5052754;28;20538;-70
2021/12/29 07:40:34;;;;;;;27.10;24.43;;;8.90;99.90;;;;;;5052171;28;20456;-71
2021/12/29 07:43:02;;;;;;;29.17;24.10;;;8.90;99.90;;;;;;5058780;28;20486;-69
2021/12/29 07:45:31;;;;;;;27.43;24.63;;;8.90;99.90;;;;;;5060275;28;20459;-72
2021/12/29 07:47:58;;;;;;;26.67;24.10;;;8.90;99.90;;;;;;5054398;28;20471;-70
2021/12/29 07:50:25;;;;;;;26.77;23.93;;;9.00;99.90;;;;;;5058220;28;20484;-69
2021/12/29 07:52:51;;;;;;;26.53;23.73;;;9.00;99.90;;;;;;5057099;28;20475;-70
2021/12/29 07:55:20;;;;;;;30.90;22.30;;;9.00;99.90;;;;;;5037127;28;20483;-70
2021/12/29 07:57:47;;;;;;;23.93;21.50;;;8.90;99.90;;;;;;5054175;28;20479;-70
2021/12/29 08:00:16;;;;;;;25.67;23.13;;;9.00;99.90;;;;;;5053574;28;20555;-71
2021/12/29 08:02:47;;;;;;;25.30;22.70;;;9.00;99.90;;;;;;5047639;28;20482;-71
2021/12/29 08:05:15;;;;;;;23.97;21.80;;;9.00;99.90;;;;;;5054888;28;20475;-69
2021/12/29 08:07:42;;;;;;;25.17;22.37;;;9.00;99.90;;;;;;5054858;28;20467;-71
2021/12/29 08:10:09;;;;;;;26.33;23.53;;;9.00;99.90;;;;;;5051492;28;20458;-71
2021/12/29 08:12:36;;;;;;;26.40;23.93;;;9.00;99.90;;;;;;5055682;28;20470;-70
2021/12/29 08:15:05;;;;;;;26.13;23.83;;;9.00;99.90;;;;;;5054348;28;20468;-70
2021/12/29 08:17:32;;;;;;;26.60;24.13;;;9.00;99.90;;;;;;5056273;28;20463;-70
2021/12/29 08:20:01;;;;;;;30.30;25.67;;;9.10;99.90;;;;;;5050287;28;20462;-70
2021/12/29 08:22:28;;;;;;;26.83;23.90;;;9.10;99.90;;;;;;5056603;28;21048;-72
2021/12/29 08:24:55;;;;;;;25.87;23.27;;;9.10;99.90;;;;;;5054288;28;20467;-70
2021/12/29 08:27:22;;;;;;;26.77;23.40;;;9.10;99.90;;;;;;5053179;28;20814;-69
2021/12/29 08:29:49;;;;;;;27.40;24.80;;;9.10;99.90;;;;;;5054496;28;20476;-71
2021/12/29 08:32:17;;;;;;;25.27;23.00;;;9.10;99.90;;;;;;5053039;28;20486;-71
2021/12/29 08:34:44;;;;;;;24.87;22.37;;;9.20;99.90;;;;;;5056275;28;20467;-71
2021/12/29 08:37:13;;;;;;;23.57;21.47;;;9.10;99.90;;;;;;5056486;28;20467;-69
2021/12/29 08:39:40;;;;;;;29.73;21.70;;;9.20;99.90;;;;;;5050364;28;20567;-72
2021/12/29 08:42:07;;;;;;;28.10;23.93;;;9.30;99.90;;;;;;5058148;28;20486;-70
2021/12/29 08:44:34;;;;;;;25.03;22.43;;;9.30;99.90;;;;;;5051949;28;20471;-72
2021/12/29 08:47:01;;;;;;;24.80;22.33;;;9.20;99.90;;;;;;5059525;28;20464;-71
2021/12/29 08:49:27;;;;;;;26.17;23.77;;;9.30;99.90;;;;;;5052535;28;20460;-70
2021/12/29 08:51:56;;;;;;;25.47;23.03;;;9.30;99.90;;;;;;5053161;28;20497;-70
2021/12/29 08:54:26;;;;;;;23.87;21.63;;;9.30;99.90;;;;;;5050176;28;20464;-70
2021/12/29 08:56:54;;;;;;;24.20;22.20;;;9.30;99.90;;;;;;5053621;28;20969;-70
2021/12/29 08:59:22;;;;;;;27.13;24.60;;;9.30;99.90;;;;;;5051479;28;21000;-70
2021/12/29 09:01:50;;;;;;;26.63;24.30;;;9.40;99.90;;;;;;5054657;28;20920;-69
2021/12/29 09:04:16;;;;;;;24.67;22.47;;;9.50;99.90;;;;;;5050620;28;20463;-70
2021/12/29 09:06:43;;;;;;;25.23;23.07;;;9.50;99.90;;;;;;5058520;28;20902;-70
2021/12/29 09:09:10;;;;;;;24.10;22.20;;;9.60;99.90;;;;;;5054897;28;20551;-69
2021/12/29 09:11:39;;;;;;;23.77;21.63;;;9.60;99.90;;;;;;5050386;28;20456;-70
2021/12/29 09:14:06;;;;;;;22.97;20.97;;;9.50;99.90;;;;;;5053003;28;20471;-70
2021/12/29 09:16:33;;;;;;;23.67;21.17;;;9.50;99.90;;;;;;5056530;28;20464;-69
2021/12/29 09:19:00;;;;;;;22.00;20.00;;;9.60;99.90;;;;;;5054882;28;20537;-69
2021/12/29 09:21:28;;;;;;;20.97;19.30;;;9.70;99.90;;;;;;5053710;28;20495;-70
2021/12/29 09:23:56;;;;;;;20.27;18.70;;;9.70;99.90;;;;;;5054756;28;20495;-72
2021/12/29 09:26:24;;;;;;;21.60;19.70;;;9.70;99.90;;;;;;5057098;28;20458;-71
2021/12/29 09:28:52;;;;;;;21.60;19.63;;;9.70;99.90;;;;;;5054693;28;20467;-70
2021/12/29 09:31:20;;;;;;;22.30;18.70;;;9.70;99.90;;;;;;5052967;28;20464;-69
2021/12/29 09:33:47;;;;;;;20.90;19.20;;;9.60;99.90;;;;;;5051224;28;20471;-71
2021/12/29 09:36:15;;;;;;;21.37;19.47;;;9.60;99.90;;;;;;5055324;28;20462;-70
2021/12/29 09:38:42;;;;;;;20.30;18.40;;;9.40;99.90;;;;;;5054454;28;20478;-71
2021/12/29 09:41:11;;;;;;;20.77;19.00;;;9.50;99.90;;;;;;5052616;28;20659;-70
2021/12/29 09:43:39;;;;;;;21.10;19.40;;;9.60;99.90;;;;;;5051515;28;20514;-71
2021/12/29 09:46:08;;;;;;;20.13;18.57;;;9.70;99.90;;;;;;5053393;28;20476;-70
2021/12/29 09:48:36;;;;;;;20.43;18.60;;;9.80;99.90;;;;;;5046621;28;20467;-69
2021/12/29 09:51:04;;;;;;;20.87;18.73;;;9.80;99.90;;;;;;5056022;28;20478;-69
2021/12/29 09:53:32;;;;;;;20.40;18.57;;;9.90;99.90;;;;;;5054858;28;20471;-70
2021/12/29 09:56:00;;;;;;;22.07;17.70;;;9.90;99.90;;;;;;5054539;28;20467;-70
2021/12/29 09:58:26;;;;;;;19.70;18.10;;;9.90;99.90;;;;;;5053034;28;20513;-71
2021/12/29 10:00:57;;;;;;;19.80;18.00;;;10.10;99.90;;;;;;5055243;28;21138;-69
2021/12/29 10:03:27;;;;;;;20.47;18.50;;;10.10;99.90;;;;;;5046820;28;20475;-70
2021/12/29 10:05:58;;;;;;;20.37;18.47;;;10.20;99.90;;;;;;5050548;28;20491;-70
2021/12/29 10:08:27;;;;;;;18.33;16.47;;;10.40;99.90;;;;;;5055511;28;20469;-69
2021/12/29 10:10:58;;;;;;;19.90;17.70;;;10.40;99.90;;;;;;5058497;28;20466;-70
2021/12/29 10:13:27;;;;;;;23.20;17.27;;;10.50;99.90;;;;;;5050832;28;20467;-70
2021/12/29 10:16:00;;;;;;;19.17;17.43;;;10.50;99.90;;;;;;5056821;28;20474;-71
2021/12/29 10:18:30;;;;;;;19.60;17.77;;;10.60;99.90;;;;;;5054026;28;20517;-69
2021/12/29 10:20:59;;;;;;;17.90;16.07;;;10.70;99.90;;;;;;5050624;28;20463;-72
2021/12/29 10:23:29;;;;;;;20.70;17.20;;;10.80;99.90;;;;;;5051129;28;20491;-70
2021/12/29 10:26:01;;;;;;;19.00;16.60;;;10.80;99.90;;;;;;5053836;28;20494;-70
2021/12/29 10:28:30;;;;;;;19.07;17.20;;;11.00;99.90;;;;;;5060688;28;20467;-71
2021/12/29 10:31:00;;;;;;;19.33;16.67;;;11.10;99.90;;;;;;5056680;28;20462;-69
2021/12/29 10:33:35;;;;;;;19.63;17.50;;;11.20;99.90;;;;;;5060275;28;20463;-71
2021/12/29 10:36:22;;;;;;;19.43;17.80;;;11.20;99.90;;;;;;5055699;28;20462;-69
2021/12/29 10:38:52;;;;;;;19.57;17.67;;;11.10;99.90;;;;;;5057226;28;20451;-69
2021/12/29 10:41:20;;;;;;;18.60;17.07;;;11.00;99.90;;;;;;5059321;28;21029;-69
2021/12/29 10:43:59;;;;;;;18.20;16.50;;;10.90;99.90;;;;;;5063067;28;21058;-70
2021/12/29 10:46:31;;;;;;;19.27;17.27;;;10.80;99.90;;;;;;5056662;28;20464;-69
2021/12/29 10:49:02;;;;;;;18.47;16.80;;;10.80;99.90;;;;;;5049188;28;20810;-70
2021/12/29 10:51:31;;;;;;;19.20;17.30;;;10.80;99.90;;;;;;5053805;28;20491;-70
2021/12/29 10:54:07;;;;;;;18.07;16.73;;;10.80;99.90;;;;;;5057381;28;20451;-70
2021/12/29 10:56:36;;;;;;;20.43;15.80;;;10.80;99.90;;;;;;5055711;28;20911;-70
2021/12/29 10:59:13;;;;;;;18.43;16.33;;;10.90;99.90;;;;;;5051459;28;20455;-70
2021/12/29 11:01:40;;;;;;;17.40;15.80;;;10.90;99.90;;;;;;5054588;28;20466;-71
2021/12/29 11:04:13;;;;;;;18.23;16.73;;;11.00;99.90;;;;;;5059370;28;20489;-72
2021/12/29 11:06:41;;;;;;;17.43;15.73;;;11.10;99.90;;;;;;5057350;28;20846;-70
2021/12/29 11:09:08;;;;;;;17.47;16.10;;;11.00;99.90;;;;;;5051776;28;20967;-71
2021/12/29 11:11:38;;;;;;;19.33;16.97;;;11.00;99.90;;;;;;5053817;28;20904;-71
2021/12/29 11:14:10;;;;;;;17.70;16.20;;;11.10;99.90;;;;;;5060528;28;20470;-71
2021/12/29 11:16:37;;;;;;;18.17;16.30;;;11.10;99.90;;;;;;5053436;28;21395;-69
2021/12/29 11:19:05;;;;;;;17.00;15.73;;;11.10;99.90;;;;;;5060363;28;20867;-70
2021/12/29 11:21:37;;;;;;;17.67;16.00;;;11.00;99.90;;;;;;5055786;28;20475;-71
2021/12/29 11:24:15;;;;;;;16.60;15.03;;;11.10;99.90;;;;;;5056710;28;20507;-71
2021/12/29 11:26:43;;;;;;;18.20;16.70;;;11.20;99.90;;;;;;5056098;28;20466;-70
2021/12/29 11:29:12;;;;;;;17.17;15.90;;;11.20;99.90;;;;;;5052421;28;20463;-70
2021/12/29 11:31:41;;;;;;;17.50;16.00;;;11.30;99.90;;;;;;5052165;28;20459;-72
2021/12/29 11:34:17;;;;;;;16.43;14.70;;;11.40;99.90;;;;;;5052277;28;20564;-71
2021/12/29 11:36:59;;;;;;;15.70;14.57;;;11.50;99.90;;;;;;5055110;28;20460;-70
2021/12/29 11:39:26;;;;;;;19.83;14.50;;;11.50;99.90;;;;;;5055238;28;20460;-70
2021/12/29 11:41:53;;;;;;;16.03;14.67;;;11.60;99.90;;;;;;5056392;28;20464;-71
2021/12/29 11:44:20;;;;;;;16.40;15.10;;;11.50;99.90;;;;;;5051568;28;20981;-70
2021/12/29 11:46:47;;;;;;;16.73;15.40;;;11.40;99.90;;;;;;5057782;28;20463;-73
2021/12/29 11:49:14;;;;;;;16.00;14.83;;;11.40;99.90;;;;;;5055811;28;21070;-71
2021/12/29 11:51:51;;;;;;;16.97;15.47;;;11.40;99.90;;;;;;5057552;28;20478;-70
2021/12/29 11:54:25;;;;;;;16.63;15.00;;;11.40;99.90;;;;;;5053512;28;20468;-70
2021/12/29 11:56:52;;;;;;;18.33;16.47;;;11.40;99.90;;;;;;5055875;28;20952;-71
2021/12/29 11:59:18;;;;;;;18.93;16.97;;;11.30;99.90;;;;;;5053439;28;20470;-71
2021/12/29 12:01:55;;;;;;;18.50;16.87;;;11.30;99.90;;;;;;5055755;28;20467;-71
2021/12/29 12:04:22;;;;;;;16.97;15.77;;;11.30;99.90;;;;;;5054301;28;20495;-72
2021/12/29 12:07:01;;;;;;;16.53;15.10;;;11.40;99.90;;;;;;5050104;28;20805;-70
2021/12/29 12:09:28;;;;;;;17.00;15.60;;;11.40;99.90;;;;;;5053237;28;20470;-70
2021/12/29 12:11:59;;;;;;;17.83;16.20;;;11.40;99.90;;;;;;5057550;28;20530;-73
2021/12/29 12:14:30;;;;;;;17.10;15.70;;;11.40;99.90;;;;;;5054183;28;20460;-70
2021/12/29 12:16:59;;;;;;;16.70;15.60;;;11.40;99.90;;;;;;5051333;28;20459;-70
2021/12/29 12:19:29;;;;;;;17.20;15.83;;;11.30;99.90;;;;;;5056690;28;20459;-69
2021/12/29 12:22:06;;;;;;;17.03;15.73;;;11.30;99.90;;;;;;5051881;28;21009;-69
2021/12/29 12:24:35;;;;;;;18.30;16.80;;;11.30;99.90;;;;;;5051861;28;20539;-69
2021/12/29 12:27:05;;;;;;;17.87;16.47;;;11.10;99.90;;;;;;5055356;28;20465;-69
2021/12/29 12:29:35;;;;;;;19.13;17.27;;;11.00;99.90;;;;;;5049930;28;20456;-70
2021/12/29 12:32:09;;;;;;;17.27;15.87;;;10.90;99.90;;;;;;5057131;28;20460;-72
2021/12/29 12:34:49;;;;;;;17.07;15.80;;;11.00;99.90;;;;;;5053044;28;20457;-69
2021/12/29 12:37:19;;;;;;;18.13;15.50;;;11.10;99.90;;;;;;5054059;28;21061;-70
2021/12/29 12:39:58;;;;;;;17.77;16.00;;;11.10;99.90;;;;;;5055425;28;20478;-71
2021/12/29 12:42:26;;;;;;;17.30;16.00;;;11.10;99.90;;;;;;5052767;28;20474;-69
2021/12/29 12:44:53;;;;;;;19.87;18.27;;;11.20;99.90;;;;;;5055719;28;20477;-69
2021/12/29 12:47:19;;;;;;;19.53;17.93;;;11.00;99.90;;;;;;5048887;28;20471;-71